Time,TemperatureF,DewpointF,PressureIn,WindDirection,WindDirectionDegrees,WindSpeedMPH,WindSpeedGustMPH,Humidity,HourlyPrecipIn,Conditions,Clouds,dailyrainin,SoftwareType,DateUTC
2013-02-04 00:04:00,15.5,13.0,30.12,WNW,298,0.0,1.0,91,0.00,,,0.00,weatherlink.com 1.10,2013-02-04 05:04:00,
2013-02-04 00:19:00,15.6,14.0,30.12,West,259,0.0,0.0,91,0.00,,,0.00,weatherlink.com 1.10,2013-02-04 05:19:00,
2013-02-04 00:34:00,15.6,14.0,30.12,West,259,0.0,1.0,91,0.00,,,0.00,weatherlink.com 1.10,2013-02-04 05:34:00,
2013-02-04 00:49:00,15.6,14.0,30.13,SW,221,0.0,1.0,91,0.00,,,0.00,weatherlink.com 1.10,2013-02-04 05:49:00,
2013-02-04 01:04:00,15.6,14.0,30.13,SSW,212,2.0,4.0,91,0.00,,,0.00,weatherlink.com 1.10,2013-02-04 06:04:00,
2013-02-04 01:19:00,15.7,13.0,30.13,SSW,194,1.0,3.0,90,0.00,,,0.00,weatherlink.com 1.10,2013-02-04 06:19:00,
2013-02-04 01:35:00,15.6,13.0,30.13,South,176,1.0,3.0,90,0.00,,,0.00,weatherlink.com 1.10,2013-02-04 06:35:00,
2013-02-04 01:50:00,15.3,12.0,30.14,East,98,2.0,9.0,87,0.00,,,0.00,weatherlink.com 1.10,2013-02-04 06:50:00,
2013-02-04 02:05:00,15.0,12.0,30.14,SW,224,4.0,10.0,87,0.00,,,0.00,weatherlink.com 1.10,2013-02-04 07:05:00,
2013-02-04 02:20:00,14.5,11.0,30.14,SW,214,9.0,9.0,85,0.00,,,0.00,weatherlink.com 1.10,2013-02-04 07:20:00,
2013-02-04 02:35:00,14.4,11.0,30.14,South,174,4.0,9.0,87,0.00,,,0.00,weatherlink.com 1.10,2013-02-04 07:35:00,
2013-02-04 02:50:00,14.1,11.0,30.14,WSW,248,2.0,8.0,86,0.00,,,0.00,weatherlink.com 1.10,2013-02-04 07:50:00,
2013-02-04 03:05:00,14.0,11.0,30.14,SW,215,4.0,6.0,86,0.00,,,0.00,weatherlink.com 1.10,2013-02-04 08:05:00,
2013-02-04 03:20:00,13.9,10.0,30.14,SW,226,2.0,10.0,84,0.00,,,0.00,weatherlink.com 1.10,2013-02-04 08:20:00,
2013-02-04 03:35:00,13.7,10.0,30.14,South,176,2.0,7.0,85,0.00,,,0.00,weatherlink.com 1.10,2013-02-04 08:35:00,
2013-02-04 03:50:00,13.6,9.0,30.15,SSW,204,8.0,11.0,83,0.00,,,0.00,weatherlink.com 1.10,2013-02-04 08:50:00,
2013-02-04 04:05:00,13.4,9.0,30.14,East,100,2.0,7.0,84,0.00,,,0.00,weatherlink.com 1.10,2013-02-04 09:05:00,
2013-02-04 04:20:00,13.4,9.0,30.14,SSE,166,5.0,10.0,82,0.00,,,0.00,weatherlink.com 1.10,2013-02-04 09:20:00,
2013-02-04 04:35:00,13.0,9.0,30.15,West,264,5.0,14.0,82,0.00,,,0.00,weatherlink.com 1.10,2013-02-04 09:35:00,
2013-02-04 04:50:00,12.5,8.0,30.15,ESE,114,8.0,8.0,82,0.00,,,0.00,weatherlink.com 1.10,2013-02-04 09:50:00,
2013-02-04 05:05:00,12.0,8.0,30.16,SW,227,3.0,8.0,83,0.00,,,0.00,weatherlink.com 1.10,2013-02-04 10:05:00,
2013-02-04 05:20:00,12.1,8.0,30.17,SW,215,2.0,7.0,83,0.00,,,0.00,weatherlink.com 1.10,2013-02-04 10:20:00,
2013-02-04 05:35:00,11.8,7.0,30.17,SW,221,8.0,14.0,82,0.00,,,0.00,weatherlink.com 1.10,2013-02-04 10:35:00,
2013-02-04 05:50:00,11.7,7.0,30.18,NE,41,4.0,10.0,82,0.00,,,0.00,weatherlink.com 1.10,2013-02-04 10:50:00,
2013-02-04 06:05:00,11.7,7.0,30.17,NE,40,5.0,13.0,81,0.00,,,0.00,weatherlink.com 1.10,2013-02-04 11:05:00,
2013-02-04 06:20:00,11.5,7.0,30.17,ESE,105,6.0,9.0,81,0.00,,,0.00,weatherlink.com 1.10,2013-02-04 11:20:00,
2013-02-04 06:35:00,11.4,6.0,30.18,South,191,5.0,8.0,80,0.00,,,0.00,weatherlink.com 1.10,2013-02-04 11:35:00,
2013-02-04 06:50:00,11.3,7.0,30.18,SSE,162,6.0,12.0,81,0.00,,,0.00,weatherlink.com 1.10,2013-02-04 11:50:00,
2013-02-04 07:05:00,11.4,7.0,30.19,SSE,163,3.0,12.0,81,0.00,,,0.00,weatherlink.com 1.10,2013-02-04 12:05:00,
2013-02-04 07:20:00,11.2,6.0,30.19,South,172,6.0,11.0,81,0.00,,,0.00,weatherlink.com 1.10,2013-02-04 12:20:00,
2013-02-04 07:36:00,10.9,6.0,30.20,SW,229,5.0,9.0,81,0.00,,,0.00,weatherlink.com 1.10,2013-02-04 12:36:00,
2013-02-04 07:51:00,11.3,7.0,30.20,SW,214,1.0,10.0,81,0.00,,,0.00,weatherlink.com 1.10,2013-02-04 12:51:00,
2013-02-04 08:06:00,11.7,7.0,30.20,SSE,160,8.0,10.0,81,0.00,,,0.00,weatherlink.com 1.10,2013-02-04 13:06:00,
2013-02-04 08:21:00,11.9,7.0,30.20,SW,235,6.0,24.0,81,0.00,,,0.00,weatherlink.com 1.10,2013-02-04 13:21:00,
2013-02-04 08:36:00,12.4,7.0,30.21,SSW,194,2.0,12.0,80,0.00,,,0.00,weatherlink.com 1.10,2013-02-04 13:36:00,
2013-02-04 08:51:00,12.8,7.0,30.21,SW,228,6.0,15.0,79,0.00,,,0.00,weatherlink.com 1.10,2013-02-04 13:51:00,
2013-02-04 09:06:00,13.9,8.0,30.21,SSW,204,5.0,12.0,78,0.00,,,0.00,weatherlink.com 1.10,2013-02-04 14:06:00,
2013-02-04 09:21:00,14.6,8.0,30.21,SE,141,1.0,12.0,75,0.00,,,0.00,weatherlink.com 1.10,2013-02-04 14:21:00,
2013-02-04 09:36:00,14.3,8.0,30.21,SSE,160,3.0,16.0,75,0.00,,,0.00,weatherlink.com 1.10,2013-02-04 14:36:00,
2013-02-04 09:51:00,14.7,8.0,30.21,SW,229,5.0,11.0,74,0.00,,,0.00,weatherlink.com 1.10,2013-02-04 14:51:00,
2013-02-04 10:06:00,15.1,8.0,30.21,SSW,200,6.0,12.0,73,0.00,,,0.00,weatherlink.com 1.10,2013-02-04 15:06:00,
2013-02-04 10:21:00,16.0,8.0,30.21,SW,226,1.0,10.0,71,0.00,,,0.00,weatherlink.com 1.10,2013-02-04 15:21:00,
2013-02-04 10:36:00,16.5,7.0,30.21,SSE,158,7.0,13.0,67,0.00,,,0.00,weatherlink.com 1.10,2013-02-04 15:36:00,
2013-02-04 10:51:00,16.5,7.0,30.21,SSW,194,6.0,13.0,66,0.00,,,0.00,weatherlink.com 1.10,2013-02-04 15:51:00,
2013-02-04 11:06:00,16.7,7.0,30.22,SE,127,9.0,17.0,66,0.00,,,0.00,weatherlink.com 1.10,2013-02-04 16:06:00,
2013-02-04 11:21:00,17.6,7.0,30.21,SW,221,7.0,14.0,64,0.00,,,0.00,weatherlink.com 1.10,2013-02-04 16:21:00,
2013-02-04 11:36:00,17.6,8.0,30.22,SSW,208,7.0,15.0,65,0.00,,,0.00,weatherlink.com 1.10,2013-02-04 16:36:00,
2013-02-04 11:51:00,18.6,7.0,30.21,WSW,248,4.0,10.0,62,0.00,,,0.00,weatherlink.com 1.10,2013-02-04 16:51:00,
2013-02-04 12:06:00,17.2,7.0,30.21,SW,214,3.0,12.0,63,0.00,,,0.00,weatherlink.com 1.10,2013-02-04 17:06:00,
2013-02-04 12:21:00,16.7,6.0,30.21,SSE,163,5.0,12.0,63,0.00,,,0.00,weatherlink.com 1.10,2013-02-04 17:21:00,
2013-02-04 12:36:00,16.7,7.0,30.21,SW,217,5.0,19.0,66,0.00,,,0.00,weatherlink.com 1.10,2013-02-04 17:36:00,
2013-02-04 12:51:00,17.1,7.0,30.21,South,176,2.0,13.0,65,0.00,,,0.00,weatherlink.com 1.10,2013-02-04 17:51:00,
2013-02-04 13:06:00,17.9,6.0,30.21,SSW,205,9.0,14.0,61,0.00,,,0.00,weatherlink.com 1.10,2013-02-04 18:06:00,
2013-02-04 13:21:00,18.3,6.0,30.22,SSE,160,2.0,14.0,58,0.00,,,0.00,weatherlink.com 1.10,2013-02-04 18:21:00,
2013-02-04 13:36:00,19.2,6.0,30.21,SSW,195,7.0,11.0,57,0.00,,,0.00,weatherlink.com 1.10,2013-02-04 18:36:00,
2013-02-04 13:51:00,19.1,6.0,30.21,SSW,204,7.0,16.0,57,0.00,,,0.00,weatherlink.com 1.10,2013-02-04 18:51:00,
2013-02-04 14:06:00,20.1,5.0,30.21,SSW,205,6.0,16.0,53,0.00,,,0.00,weatherlink.com 1.10,2013-02-04 19:06:00,
2013-02-04 14:21:00,19.4,6.0,30.21,SSW,200,3.0,16.0,55,0.00,,,0.00,weatherlink.com 1.10,2013-02-04 19:21:00,
2013-02-04 14:36:00,18.6,5.0,30.21,SW,221,4.0,11.0,56,0.00,,,0.00,weatherlink.com 1.10,2013-02-04 19:36:00,
2013-02-04 14:51:00,17.8,5.0,30.21,South,169,1.0,13.0,58,0.00,,,0.00,weatherlink.com 1.10,2013-02-04 19:51:00,
2013-02-04 15:06:00,16.8,5.0,30.22,SE,143,3.0,14.0,59,0.00,,,0.00,weatherlink.com 1.10,2013-02-04 20:06:00,
2013-02-04 15:21:00,16.8,6.0,30.23,SW,215,5.0,13.0,62,0.00,,,0.00,weatherlink.com 1.10,2013-02-04 20:21:00,
2013-02-04 15:36:00,17.0,6.0,30.23,SW,221,8.0,9.0,63,0.00,,,0.00,weatherlink.com 1.10,2013-02-04 20:36:00,
2013-02-04 15:51:00,17.1,6.0,30.22,South,190,3.0,9.0,62,0.00,,,0.00,weatherlink.com 1.10,2013-02-04 20:51:00,
2013-02-04 16:06:00,17.0,6.0,30.22,SSE,149,4.0,12.0,61,0.00,,,0.00,weatherlink.com 1.10,2013-02-04 21:06:00,
2013-02-04 16:21:00,16.0,5.0,30.23,ENE,78,5.0,12.0,62,0.00,,,0.00,weatherlink.com 1.10,2013-02-04 21:21:00,
2013-02-04 16:36:00,15.4,6.0,30.23,SSW,211,3.0,12.0,65,0.00,,,0.00,weatherlink.com 1.10,2013-02-04 21:36:00,
2013-02-04 16:51:00,14.9,5.0,30.24,SSW,211,4.0,7.0,66,0.00,,,0.00,weatherlink.com 1.10,2013-02-04 21:51:00,
2013-02-04 17:06:00,14.4,5.0,30.24,SSW,203,11.0,13.0,67,0.00,,,0.00,weatherlink.com 1.10,2013-02-04 22:06:00,
2013-02-04 17:21:00,13.7,5.0,30.24,NNW,332,7.0,8.0,69,0.00,,,0.00,weatherlink.com 1.10,2013-02-04 22:21:00,
2013-02-04 17:36:00,13.6,6.0,30.23,ESE,118,3.0,8.0,70,0.00,,,0.00,weatherlink.com 1.10,2013-02-04 22:36:00,
2013-02-04 17:51:00,13.3,5.0,30.24,SE,144,6.0,6.0,70,0.00,,,0.00,weatherlink.com 1.10,2013-02-04 22:51:00,
2013-02-04 18:06:00,13.1,5.0,30.25,SSW,195,3.0,6.0,71,0.00,,,0.00,weatherlink.com 1.10,2013-02-04 23:06:00,
2013-02-04 18:21:00,12.9,5.0,30.25,South,184,3.0,6.0,72,0.00,,,0.00,weatherlink.com 1.10,2013-02-04 23:21:00,
2013-02-04 18:36:00,12.3,6.0,30.26,SSE,165,1.0,5.0,74,0.00,,,0.00,weatherlink.com 1.10,2013-02-04 23:36:00,
2013-02-04 18:51:00,11.7,5.0,30.27,South,191,0.0,5.0,74,0.00,,,0.00,weatherlink.com 1.10,2013-02-04 23:51:00,
2013-02-04 19:06:00,11.0,5.0,30.27,NNW,348,1.0,3.0,77,0.00,,,0.00,weatherlink.com 1.10,2013-02-05 00:06:00,
2013-02-04 19:21:00,11.1,6.0,30.27,SE,134,0.0,3.0,79,0.00,,,0.00,weatherlink.com 1.10,2013-02-05 00:21:00,
2013-02-04 19:37:00,11.1,6.0,30.27,WNW,302,0.0,2.0,80,0.00,,,0.00,weatherlink.com 1.10,2013-02-05 00:37:00,
2013-02-04 19:52:00,12.2,7.0,30.28,SW,225,1.0,4.0,80,0.00,,,0.00,weatherlink.com 1.10,2013-02-05 00:52:00,
2013-02-04 20:07:00,12.5,7.0,30.28,South,173,2.0,3.0,80,0.00,,,0.00,weatherlink.com 1.10,2013-02-05 01:07:00,
2013-02-04 20:22:00,12.8,8.0,30.28,SSW,202,2.0,5.0,80,0.00,,,0.00,weatherlink.com 1.10,2013-02-05 01:22:00,
2013-02-04 20:37:00,12.6,8.0,30.28,SW,229,0.0,3.0,81,0.00,,,0.00,weatherlink.com 1.10,2013-02-05 01:37:00,
2013-02-04 20:52:00,12.7,8.0,30.28,SW,221,1.0,3.0,82,0.00,,,0.00,weatherlink.com 1.10,2013-02-05 01:52:00,
2013-02-04 21:07:00,12.7,8.0,30.28,SSW,213,0.0,2.0,82,0.00,,,0.00,weatherlink.com 1.10,2013-02-05 02:07:00,
2013-02-04 21:22:00,12.8,9.0,30.28,SSW,208,0.0,2.0,83,0.00,,,0.00,weatherlink.com 1.10,2013-02-05 02:22:00,
2013-02-04 21:37:00,12.7,9.0,30.28,South,180,0.0,3.0,83,0.00,,,0.00,weatherlink.com 1.10,2013-02-05 02:37:00,
2013-02-04 21:52:00,12.9,9.0,30.28,SW,226,2.0,2.0,83,0.00,,,0.00,weatherlink.com 1.10,2013-02-05 02:52:00,
2013-02-04 22:07:00,13.0,9.0,30.28,South,191,0.0,3.0,83,0.00,,,0.00,weatherlink.com 1.10,2013-02-05 03:07:00,
2013-02-04 22:22:00,13.0,9.0,30.29,SW,219,2.0,3.0,84,0.00,,,0.00,weatherlink.com 1.10,2013-02-05 03:22:00,
2013-02-04 22:37:00,13.1,9.0,30.29,SW,222,3.0,3.0,84,0.00,,,0.00,weatherlink.com 1.10,2013-02-05 03:37:00,
2013-02-04 22:52:00,13.2,9.0,30.29,SSW,207,0.0,3.0,84,0.00,,,0.00,weatherlink.com 1.10,2013-02-05 03:52:00,
2013-02-04 23:07:00,13.2,9.0,30.29,NNW,332,1.0,2.0,84,0.00,,,0.00,weatherlink.com 1.10,2013-02-05 04:07:00,
2013-02-04 23:22:00,13.2,9.0,30.29,ESE,122,1.0,1.0,84,0.00,,,0.00,weatherlink.com 1.10,2013-02-05 04:22:00,
2013-02-04 23:37:00,13.1,9.0,30.29,SE,138,2.0,2.0,85,0.00,,,0.00,weatherlink.com 1.10,2013-02-05 04:37:00,
2013-02-04 23:52:00,13.1,10.0,30.29,SSE,151,0.0,1.0,86,0.00,,,0.00,weatherlink.com 1.10,2013-02-05 04:52:00,